Time;durP1;ratioP1;P1;durP2;ratioP2;P2;SDS_P1;SDS_P2;PMS_P1;PMS_P2;Temp;Humidity;BMP_temperature;BMP_pressure;BME280_temperature;BME280_humidity;BME280_pressure;Samples;Min_cycle;Max_cycle;Signal;HPM_P1;HPM_P2
2022/03/05 00:00:44;;;;;;;;;;;;;;;;;;;;;
2022/03/05 00:04:41;;;;;;;18.60;8.80;;;0.70;99.90;;;;;;5036444;28;20057;-91
2022/03/05 00:07:04;;;;;;;;;;;;;;;;;;;;;
2022/03/05 00:12:42;;;;;;;;;;;;;;;;;;;;;
2022/03/05 00:15:24;;;;;;;19.85;9.18;;;1.30;99.90;;;;;;5021226;28;20521;-92
2022/03/05 00:18:19;;;;;;;;;;;;;;;;;;;;;
2022/03/05 00:24:44;;;;;;;22.85;9.32;;;2.30;99.90;;;;;;5000496;28;20517;-91
2022/03/05 00:27:23;;;;;;;;;;;;;;;;;;;;;
2022/03/05 00:30:25;;;;;;;22.45;9.32;;;0.40;99.90;;;;;;5019286;28;20053;-91
2022/03/05 00:33:19;;;;;;;;;;;;;;;;;;;;;
2022/03/05 00:36:35;;;;;;;19.23;7.72;;;-1.00;99.90;;;;;;5018344;28;20045;-91
2022/03/05 00:39:10;;;;;;;17.05;7.07;;;0.50;99.90;;;;;;5015395;28;20057;-91
2022/03/05 00:41:45;;;;;;;19.25;8.30;;;-0.90;99.90;;;;;;5002969;28;20061;-91
2022/03/05 00:44:40;;;;;;;21.98;9.15;;;0.20;99.90;;;;;;5037885;28;20158;-91
2022/03/05 00:48:23;;;;;;;20.50;7.78;;;0.40;99.90;;;;;;5039602;28;20049;-91
2022/03/05 00:51:04;;;;;;;18.20;8.10;;;1.50;99.90;;;;;;5014586;28;20060;-92
2022/03/05 00:57:01;;;;;;;19.33;8.55;;;-0.10;99.90;;;;;;4989104;28;20109;-91
2022/03/05 01:03:28;;;;;;;;;;;;;;;;;;;;;
2022/03/05 01:06:45;;;;;;;17.40;7.90;;;1.00;99.90;;;;;;4994436;28;20046;-91
2022/03/05 01:09:41;;;;;;;;;;;;;;;;;;;;;
2022/03/05 01:12:41;;;;;;;19.60;8.63;;;-0.30;99.90;;;;;;5009586;28;20479;-91
2022/03/05 01:15:17;;;;;;;19.27;7.95;;;0.00;99.90;;;;;;4981335;28;20062;-92
2022/03/05 01:18:29;;;;;;;18.83;9.07;;;0.10;99.90;;;;;;4981996;28;20151;-92
2022/03/05 01:21:46;;;;;;;20.33;7.72;;;-1.60;99.90;;;;;;4993603;28;20042;-91
2022/03/05 01:30:41;;;;;;;;;;;;;;;;;;;;;
2022/03/05 01:33:48;;;;;;;20.02;7.80;;;-0.20;99.90;;;;;;5003196;28;20047;-92
2022/03/05 01:36:53;;;;;;;;;;;;;;;;;;;;;
2022/03/05 01:39:41;;;;;;;18.52;8.02;;;0.60;99.90;;;;;;5011061;28;20046;-92
2022/03/05 01:42:12;;;;;;;22.17;8.73;;;-0.80;99.90;;;;;;5011908;28;20488;-91
2022/03/05 01:45:01;;;;;;;17.52;7.50;;;1.00;99.90;;;;;;4997525;28;20049;-92
2022/03/05 01:47:50;;;;;;;;;;;;;;;;;;;;;
2022/03/05 01:50:26;;;;;;;22.25;7.88;;;-0.50;99.90;;;;;;5017488;28;20053;-92
2022/03/05 01:59:31;;;;;;;20.92;8.18;;;-0.60;99.90;;;;;;5015199;28;20050;-91
2022/03/05 02:05:25;;;;;;;;;;;;;;;;;;;;;
2022/03/05 02:08:21;;;;;;;;;;;;;;;;;;;;;
2022/03/05 02:11:02;;;;;;;;;;;;;;;;;;;;;
2022/03/05 02:14:00;;;;;;;17.55;7.18;;;-0.70;99.90;;;;;;5013062;28;20363;-92
2022/03/05 02:16:52;;;;;;;16.02;6.85;;;-1.00;99.90;;;;;;5007978;28;20100;-91
2022/03/05 02:20:14;;;;;;;;;;;;;;;;;;;;;
2022/03/05 02:26:54;;;;;;;15.45;6.30;;;-0.90;99.90;;;;;;5013479;28;20056;-92
2022/03/05 02:29:52;;;;;;;16.80;6.95;;;-1.20;99.90;;;;;;4983155;28;20506;-92
2022/03/05 02:37:20;;;;;;;;;;;;;;;;;;;;;
2022/03/05 02:40:09;;;;;;;;;;;;;;;;;;;;;
2022/03/05 02:43:26;;;;;;;19.13;6.97;;;-1.30;99.90;;;;;;5029098;28;20109;-92
2022/03/05 02:46:37;;;;;;;18.35;7.07;;;0.90;99.90;;;;;;4985310;28;20084;-92
2022/03/05 02:56:46;;;;;;;;;;;;;;;;;;;;;
2022/03/05 02:59:58;;;;;;;14.30;6.45;;;-2.50;99.90;;;;;;4956687;28;20046;-91
2022/03/05 03:09:49;;;;;;;17.50;6.78;;;-1.00;99.90;;;;;;5029392;28;20061;-92
2022/03/05 03:13:08;;;;;;;;;;;;;;;;;;;;;
2022/03/05 03:23:02;;;;;;;;;;;;;;;;;;;;;
2022/03/05 03:25:59;;;;;;;;;;;;;;;;;;;;;
2022/03/05 03:32:31;;;;;;;;;;;;;;;;;;;;;
2022/03/05 03:39:16;;;;;;;;;;;;;;;;;;;;;
2022/03/05 03:42:39;;;;;;;;;;;;;;;;;;;;;
2022/03/05 03:48:53;;;;;;;15.82;6.35;;;-1.00;99.90;;;;;;5005502;28;20087;-93
2022/03/05 03:51:53;;;;;;;17.92;7.22;;;-1.10;99.90;;;;;;4990507;28;20102;-93
2022/03/05 03:54:55;;;;;;;16.30;6.13;;;0.30;99.90;;;;;;5021593;28;20092;-93
2022/03/05 04:01:13;;;;;;;;;;;;;;;;;;;;;
2022/03/05 04:10:34;;;;;;;18.75;7.13;;;-2.10;99.90;;;;;;5017447;28;20052;-91
2022/03/05 04:13:44;;;;;;;;;;;;;;;;;;;;;
2022/03/05 04:17:01;;;;;;;;;;;;;;;;;;;;;
2022/03/05 04:20:09;;;;;;;;;;;;;;;;;;;;;
2022/03/05 04:23:29;;;;;;;16.75;6.10;;;0.00;99.90;;;;;;5023239;28;20080;-93
2022/03/05 04:26:28;;;;;;;;;;;;;;;;;;;;;
2022/03/05 04:29:27;;;;;;;16.52;6.93;;;-0.50;99.90;;;;;;5019165;28;20076;-92
2022/03/05 04:38:11;;;;;;;;;;;;;;;;;;;;;
2022/03/05 04:40:42;;;;;;;23.17;6.85;;;0.20;99.90;;;;;;5036967;28;20048;-92
2022/03/05 04:43:57;;;;;;;19.73;7.05;;;-2.20;99.90;;;;;;5004993;28;20540;-92
2022/03/05 04:49:39;;;;;;;17.10;6.88;;;-1.70;99.90;;;;;;4929313;28;2317292;-93
2022/03/05 04:52:21;;;;;;;19.35;7.05;;;-0.80;99.90;;;;;;4984679;28;20085;-92
2022/03/05 04:54:51;;;;;;;17.48;6.50;;;-1.30;99.90;;;;;;4998694;28;20518;-92
2022/03/05 04:57:50;;;;;;;22.33;7.53;;;-0.90;99.90;;;;;;4998582;28;20054;-92
2022/03/05 05:00:49;;;;;;;;;;;;;;;;;;;;;
2022/03/05 05:03:26;;;;;;;20.45;7.07;;;-1.60;99.90;;;;;;5001175;28;20454;-93
2022/03/05 05:06:34;;;;;;;23.55;6.85;;;-2.00;99.90;;;;;;4984055;28;20095;-93
2022/03/05 05:09:38;;;;;;;;;;;;;;;;;;;;;
2022/03/05 05:12:36;;;;;;;17.70;6.75;;;-0.70;99.90;;;;;;5014843;28;20053;-93
2022/03/05 05:15:18;;;;;;;;;;;;;;;;;;;;;
2022/03/05 05:18:02;;;;;;;;;;;;;;;;;;;;;
2022/03/05 05:20:44;;;;;;;;;;;;;;;;;;;;;
2022/03/05 05:23:34;;;;;;;19.70;7.40;;;-1.00;99.90;;;;;;5014342;28;20492;-93
2022/03/05 05:26:42;;;;;;;;;;;;;;;;;;;;;
2022/03/05 05:29:22;;;;;;;;;;;;;;;;;;;;;
2022/03/05 05:31:55;;;;;;;17.88;6.65;;;-1.80;99.90;;;;;;5014232;28;20526;-94
2022/03/05 05:38:06;;;;;;;;;;;;;;;;;;;;;
2022/03/05 05:40:50;;;;;;;;;;;;;;;;;;;;;
2022/03/05 05:43:58;;;;;;;;;;;;;;;;;;;;;
2022/03/05 05:46:46;;;;;;;15.05;5.57;;;-0.90;99.90;;;;;;5011746;28;20527;-93
2022/03/05 05:50:05;;;;;;;16.10;6.53;;;-0.40;99.90;;;;;;4989913;28;20050;-94
2022/03/05 05:52:42;;;;;;;;;;;;;;;;;;;;;
2022/03/05 05:55:41;;;;;;;;;;;;;;;;;;;;;
2022/03/05 05:58:48;;;;;;;;;;;;;;;;;;;;;
2022/03/05 06:01:56;;;;;;;;;;;;;;;;;;;;;
2022/03/05 06:17:54;;;;;;;14.80;6.40;;;0.00;99.90;;;;;;5000445;28;20200;-94
2022/03/05 06:20:48;;;;;;;15.07;6.32;;;-1.50;99.90;;;;;;5011908;28;20131;-94
2022/03/05 06:24:10;;;;;;;;;;;;;;;;;;;;;
2022/03/05 06:27:03;;;;;;;15.13;6.35;;;-0.90;99.90;;;;;;4976804;28;20050;-93
2022/03/05 06:30:00;;;;;;;;;;;;;;;;;;;;;
2022/03/05 06:32:48;;;;;;;;;;;;;;;;;;;;;
2022/03/05 06:35:41;;;;;;;15.88;6.18;;;-1.00;99.90;;;;;;4976116;28;20058;-93
2022/03/05 06:38:24;;;;;;;12.80;5.75;;;-1.60;99.90;;;;;;4962044;28;20149;-95
2022/03/05 06:41:44;;;;;;;;;;;;;;;;;;;;;
2022/03/05 06:44:06;;;;;;;20.90;6.80;;;-1.40;99.90;;;;;;5006748;28;20141;-93
2022/03/05 06:47:02;;;;;;;18.58;6.82;;;-1.30;99.90;;;;;;4998591;28;20045;-93
2022/03/05 06:49:48;;;;;;;20.05;6.70;;;-0.30;99.90;;;;;;4993813;28;20134;-93
2022/03/05 06:55:57;;;;;;;16.85;6.07;;;-0.80;99.90;;;;;;5020015;28;20419;-93
2022/03/05 07:02:00;;;;;;;15.02;6.10;;;-1.10;99.90;;;;;;4983646;28;20072;-93
2022/03/05 07:04:49;;;;;;;;;;;;;;;;;;;;;
2022/03/05 07:07:32;;;;;;;;;;;;;;;;;;;;;
2022/03/05 07:10:13;;;;;;;14.20;6.60;;;0.30;99.90;;;;;;5008184;28;20088;-93
2022/03/05 07:13:08;;;;;;;16.30;7.05;;;-2.20;99.90;;;;;;4996530;28;20136;-92
2022/03/05 07:18:42;;;;;;;17.77;6.97;;;0.00;99.90;;;;;;4984592;28;20081;-93
2022/03/05 07:21:25;;;;;;;16.58;7.07;;;0.40;99.90;;;;;;4982485;28;20129;-92
2022/03/05 07:24:08;;;;;;;15.85;6.78;;;-1.70;99.90;;;;;;4995368;28;20109;-94
2022/03/05 07:26:39;;;;;;;19.67;7.35;;;-1.00;99.90;;;;;;5016098;28;20092;-92
2022/03/05 07:29:28;;;;;;;17.30;6.95;;;-0.40;99.90;;;;;;5015797;28;20057;-93
2022/03/05 07:32:09;;;;;;;18.83;6.95;;;0.10;99.90;;;;;;5016154;28;20605;-93
2022/03/05 07:34:46;;;;;;;18.40;7.82;;;-0.40;99.90;;;;;;5032748;28;20124;-93
2022/03/05 07:37:38;;;;;;;18.45;6.78;;;0.00;99.90;;;;;;5015161;28;20134;-92
2022/03/05 07:40:33;;;;;;;16.13;5.97;;;-0.60;99.90;;;;;;5011790;28;20092;-92
2022/03/05 07:43:08;;;;;;;17.75;7.05;;;-0.60;99.90;;;;;;4998190;28;20056;-92
2022/03/05 07:45:49;;;;;;;;;;;;;;;;;;;;;
2022/03/05 07:48:46;;;;;;;19.63;7.80;;;-0.30;99.90;;;;;;4997798;28;20106;-92
2022/03/05 07:51:14;;;;;;;22.40;8.48;;;-0.50;99.90;;;;;;5012257;28;20050;-92
2022/03/05 07:53:46;;;;;;;18.02;6.95;;;-0.50;99.90;;;;;;5008997;28;20049;-92
2022/03/05 07:56:31;;;;;;;19.35;7.50;;;-0.30;99.90;;;;;;5016093;28;20042;-91
2022/03/05 07:59:25;;;;;;;19.77;7.18;;;-1.10;99.90;;;;;;5015810;28;20049;-91
2022/03/05 08:02:07;;;;;;;22.00;8.52;;;1.60;99.90;;;;;;4996476;28;20038;-91
2022/03/05 08:04:49;;;;;;;22.02;8.10;;;1.20;99.90;;;;;;4996776;28;20128;-91
2022/03/05 08:07:29;;;;;;;16.60;6.45;;;0.90;99.90;;;;;;4996850;28;20057;-93
2022/03/05 08:10:09;;;;;;;19.25;8.07;;;-0.10;99.90;;;;;;4995945;28;20046;-91
2022/03/05 08:15:31;;;;;;;23.17;8.75;;;0.00;99.90;;;;;;5036559;28;20049;-91
2022/03/05 08:18:03;;;;;;;19.95;8.18;;;0.40;99.90;;;;;;5004400;28;20119;-90
2022/03/05 08:20:42;;;;;;;;;;;;;;;;;;;;;
2022/03/05 08:23:28;;;;;;;21.15;8.60;;;0.10;99.90;;;;;;5035447;28;20049;-91
2022/03/05 08:25:59;;;;;;;22.92;9.25;;;0.50;99.90;;;;;;5018604;28;20064;-91
2022/03/05 08:28:27;;;;;;;21.73;8.40;;;0.20;99.90;;;;;;5018365;28;20081;-90
2022/03/05 08:30:56;;;;;;;23.40;9.35;;;1.10;99.90;;;;;;5003283;28;20058;-90
2022/03/05 08:33:28;;;;;;;22.05;8.95;;;0.50;99.90;;;;;;5010058;28;20056;-90
2022/03/05 08:35:57;;;;;;;22.85;8.68;;;0.70;99.90;;;;;;5018377;28;20053;-91
2022/03/05 08:38:31;;;;;;;23.20;8.80;;;;;;;;;;5021282;28;20049;-90
2022/03/05 08:41:01;;;;;;;22.20;9.50;;;0.40;99.90;;;;;;5020371;28;20072;-92
2022/03/05 08:43:38;;;;;;;24.67;9.98;;;0.40;99.90;;;;;;5004194;28;20061;-90
2022/03/05 08:46:07;;;;;;;26.20;9.30;;;0.80;99.90;;;;;;5018719;28;20056;-90
2022/03/05 08:48:38;;;;;;;24.30;9.63;;;0.80;99.90;;;;;;5035139;28;20045;-90
2022/03/05 08:51:14;;;;;;;22.05;8.65;;;0.80;99.90;;;;;;5002038;28;20053;-91
2022/03/05 08:53:39;;;;;;;23.45;9.45;;;0.70;99.90;;;;;;4999663;28;20076;-91
2022/03/05 08:56:05;;;;;;;24.10;10.00;;;0.80;99.90;;;;;;5018199;28;20475;-91
2022/03/05 08:58:49;;;;;;;;;;;;;;;;;;;;;
2022/03/05 09:01:20;;;;;;;24.48;9.73;;;2.40;99.90;;;;;;5034516;28;20042;-90
2022/03/05 09:03:49;;;;;;;26.48;10.32;;;2.20;99.90;;;;;;5037072;28;20487;-89
2022/03/05 09:06:15;;;;;;;27.77;10.50;;;1.90;99.90;;;;;;5037056;28;20084;-89
2022/03/05 09:08:43;;;;;;;22.40;8.88;;;2.10;99.90;;;;;;5018530;28;20092;-89
2022/03/05 09:11:26;;;;;;;;;;;;;;;;;;;;;
2022/03/05 09:13:57;;;;;;;25.48;10.07;;;2.50;99.90;;;;;;5030513;28;20057;-91
2022/03/05 09:16:26;;;;;;;25.65;8.73;;;;;;;;;;5017303;28;20486;-90
2022/03/05 09:18:51;;;;;;;30.90;10.32;;;1.20;99.90;;;;;;5014551;28;20088;-91
2022/03/05 09:21:17;;;;;;;25.27;9.98;;;1.80;99.90;;;;;;4997812;28;20085;-91
2022/03/05 09:23:47;;;;;;;27.90;10.38;;;2.10;99.90;;;;;;4997839;28;20046;-90
2022/03/05 09:26:16;;;;;;;27.90;10.18;;;2.00;99.90;;;;;;4996797;28;20050;-90
2022/03/05 09:28:42;;;;;;;29.30;10.45;;;2.30;99.90;;;;;;4998017;28;20514;-91
2022/03/05 09:31:10;;;;;;;;;;;0.40;99.90;;;;;;4998257;28;20127;-91
2022/03/05 09:33:39;;;;;;;23.40;9.48;;;;;;;;;;5006750;28;19985;-89
2022/03/05 09:36:05;;;;;;;27.50;10.57;;;1.40;99.90;;;;;;5014482;28;20045;-89
2022/03/05 09:38:33;;;;;;;32.63;12.15;;;2.80;99.90;;;;;;5016055;28;20517;-89
2022/03/05 09:41:03;;;;;;;30.13;10.20;;;2.30;99.90;;;;;;5032419;28;20041;-90
2022/03/05 09:43:28;;;;;;;26.65;10.88;;;1.50;99.90;;;;;;5032286;28;20502;-90
2022/03/05 09:45:57;;;;;;;27.02;10.27;;;2.80;99.90;;;;;;5016657;28;20080;-89
2022/03/05 09:48:25;;;;;;;28.27;11.00;;;3.00;99.90;;;;;;5032843;28;20110;-89
2022/03/05 09:50:55;;;;;;;25.02;10.93;;;1.70;99.90;;;;;;5012557;28;20046;-90
2022/03/05 09:53:26;;;;;;;29.30;10.65;;;2.80;99.90;;;;;;5005303;28;20129;-89
2022/03/05 09:55:52;;;;;;;28.17;10.43;;;1.90;99.90;;;;;;5016673;28;20058;-89
2022/03/05 09:58:19;;;;;;;28.65;11.02;;;1.90;99.90;;;;;;5015903;28;20045;-89
2022/03/05 10:00:45;;;;;;;25.42;11.20;;;;;;;;;;5032734;28;20419;-90
2022/03/05 10:03:22;;;;;;;29.73;11.80;;;2.10;99.90;;;;;;5030957;28;20045;-93
2022/03/05 10:05:51;;;;;;;25.80;11.15;;;2.10;99.90;;;;;;5013287;28;20042;-88
2022/03/05 10:08:19;;;;;;;30.38;11.05;;;2.20;99.90;;;;;;4996497;28;20092;-95
2022/03/05 10:10:59;;;;;;;28.77;10.75;;;3.10;99.90;;;;;;4997360;28;20554;-89
2022/03/05 10:13:30;;;;;;;27.73;11.35;;;2.30;99.90;;;;;;5009439;28;20049;-90
2022/03/05 10:16:00;;;;;;;27.73;11.40;;;2.50;99.90;;;;;;5019828;28;20041;-90
2022/03/05 10:18:31;;;;;;;27.85;10.43;;;3.00;99.90;;;;;;5015841;28;20212;-89
2022/03/05 10:21:03;;;;;;;32.80;10.65;;;2.60;99.90;;;;;;5015221;28;20050;-89
2022/03/05 10:23:33;;;;;;;30.92;12.48;;;2.70;99.90;;;;;;5014265;28;20053;-89
2022/03/05 10:26:03;;;;;;;27.48;11.15;;;3.60;99.90;;;;;;5015678;28;20057;-88
2022/03/05 10:28:29;;;;;;;30.05;11.55;;;3.60;99.90;;;;;;5030887;28;20624;-88
2022/03/05 10:31:12;;;;;;;;;;;4.10;99.90;;;;;;5032766;28;20041;-93
2022/03/05 10:33:41;;;;;;;28.38;10.25;;;3.70;99.90;;;;;;5015679;28;19921;-89
2022/03/05 10:36:19;;;;;;;29.00;11.63;;;3.80;99.90;;;;;;5015614;28;20049;-90
2022/03/05 10:38:54;;;;;;;27.23;10.52;;;3.20;99.90;;;;;;5032023;28;20084;-90
2022/03/05 10:41:24;;;;;;;26.60;10.73;;;3.30;99.90;;;;;;5014957;28;20142;-89
2022/03/05 10:44:15;;;;;;;25.80;10.77;;;4.10;99.90;;;;;;5015495;28;20042;-89
2022/03/05 10:46:58;;;;;;;27.98;10.90;;;3.60;99.90;;;;;;5015502;28;20056;-87
2022/03/05 10:49:35;;;;;;;25.42;10.52;;;3.00;99.90;;;;;;5018304;28;20060;-87
2022/03/05 10:52:06;;;;;;;27.95;11.82;;;3.70;99.90;;;;;;5018677;28;20068;-86
2022/03/05 10:54:42;;;;;;;27.15;11.15;;;3.70;99.90;;;;;;5035063;28;20070;-87
2022/03/05 10:57:13;;;;;;;25.23;11.18;;;3.90;99.90;;;;;;5035166;28;20132;-87
2022/03/05 10:59:43;;;;;;;27.90;11.02;;;3.80;99.90;;;;;;5035413;28;20044;-87
2022/03/05 11:02:11;;;;;;;25.45;9.52;;;4.00;99.90;;;;;;5017568;28;20052;-88
2022/03/05 11:04:40;;;;;;;26.83;11.75;;;4.00;99.90;;;;;;5017322;28;20104;-87
2022/03/05 11:07:07;;;;;;;30.83;12.38;;;4.10;99.90;;;;;;5019550;28;20060;-90
2022/03/05 11:09:35;;;;;;;26.50;10.73;;;5.00;99.90;;;;;;5017832;28;20049;-85
2022/03/05 11:12:03;;;;;;;29.30;11.27;;;4.80;99.90;;;;;;5034670;28;20486;-84
2022/03/05 11:14:32;;;;;;;28.77;11.15;;;4.40;99.90;;;;;;5033327;28;20055;-84
2022/03/05 11:16:59;;;;;;;33.95;11.40;;;4.50;99.90;;;;;;5017664;28;20455;-81
2022/03/05 11:19:26;;;;;;;29.15;11.18;;;5.70;99.90;;;;;;5032535;28;20083;-82
2022/03/05 11:21:52;;;;;;;28.98;11.27;;;4.70;99.90;;;;;;5032807;28;20498;-82
2022/03/05 11:24:20;;;;;;;28.02;11.40;;;5.80;99.90;;;;;;5016872;28;20132;-83
2022/03/05 11:26:48;;;;;;;28.15;11.18;;;5.10;99.90;;;;;;5016640;28;20060;-83
2022/03/05 11:29:18;;;;;;;34.30;12.93;;;6.20;99.90;;;;;;5028656;28;20057;-82
2022/03/05 11:31:44;;;;;;;26.10;10.40;;;5.40;99.90;;;;;;4997604;28;20049;-84
2022/03/05 11:34:13;;;;;;;27.60;10.98;;;5.30;99.90;;;;;;4965930;28;20060;-84
2022/03/05 11:36:40;;;;;;;29.80;12.48;;;5.70;99.90;;;;;;5021716;28;20052;-84
2022/03/05 11:39:10;;;;;;;28.02;12.00;;;5.60;99.90;;;;;;5016654;28;20132;-84
2022/03/05 11:42:03;;;;;;;33.65;14.45;;;5.70;99.90;;;;;;5015898;28;20041;-84
2022/03/05 11:44:40;;;;;;;28.60;12.02;;;5.90;99.90;;;;;;4999803;28;20041;-83
2022/03/05 11:47:18;;;;;;;28.98;11.25;;;6.10;99.90;;;;;;5047058;28;20045;-82
2022/03/05 11:49:58;;;;;;;32.33;13.50;;;6.40;99.90;;;;;;5013805;28;20057;-83
2022/03/05 11:52:43;;;;;;;30.88;12.20;;;6.60;99.90;;;;;;4997473;28;20046;-83
2022/03/05 11:55:15;;;;;;;30.65;12.23;;;6.80;99.90;;;;;;5008242;28;20551;-83
2022/03/05 11:57:53;;;;;;;27.35;11.48;;;7.10;99.90;;;;;;5010009;28;20383;-85
2022/03/05 12:00:26;;;;;;;29.92;12.80;;;7.30;99.90;;;;;;5011393;28;20042;-83
2022/03/05 12:02:57;;;;;;;26.40;12.10;;;7.50;99.90;;;;;;5029101;28;20427;-83
2022/03/05 12:05:40;;;;;;;26.02;12.32;;;7.70;99.90;;;;;;4995944;28;20136;-83
2022/03/05 12:08:08;;;;;;;28.85;11.85;;;8.00;99.90;;;;;;5010208;28;20050;-83
2022/03/05 12:10:35;;;;;;;28.98;13.50;;;8.10;99.90;;;;;;4996140;28;20488;-84
2022/03/05 12:13:03;;;;;;;29.30;14.13;;;8.50;99.90;;;;;;4979421;28;20092;-84
2022/03/05 12:15:33;;;;;;;30.10;13.70;;;8.70;99.90;;;;;;4995446;28;20038;-84
2022/03/05 12:18:03;;;;;;;28.85;13.77;;;8.90;99.90;;;;;;4996304;28;20093;-81
2022/03/05 12:20:33;;;;;;;27.40;13.77;;;9.10;99.90;;;;;;4979749;28;20042;-82
2022/03/05 12:23:04;;;;;;;27.80;14.85;;;9.40;99.90;;;;;;5011232;28;20533;-84
2022/03/05 12:25:33;;;;;;;29.30;14.48;;;9.50;99.90;;;;;;5028450;28;20108;-83
2022/03/05 12:28:00;;;;;;;30.05;15.10;;;9.60;99.90;;;;;;4992881;28;20057;-84
2022/03/05 12:30:38;;;;;;;27.83;13.82;;;9.70;99.90;;;;;;4979371;28;20540;-84
2022/03/05 12:33:06;;;;;;;27.98;14.48;;;10.00;99.90;;;;;;5011265;28;20104;-85
2022/03/05 12:35:33;;;;;;;27.88;14.60;;;10.10;99.90;;;;;;4991114;28;20038;-83
2022/03/05 12:37:59;;;;;;;29.58;14.60;;;10.30;99.90;;;;;;5009624;28;20089;-83
2022/03/05 12:40:26;;;;;;;29.95;15.13;;;10.50;99.90;;;;;;5010430;28;20066;-84
2022/03/05 12:42:54;;;;;;;27.80;14.43;;;10.70;99.90;;;;;;5010425;28;20071;-81
2022/03/05 12:45:25;;;;;;;27.23;13.60;;;10.90;99.90;;;;;;5011527;28;20499;-84
2022/03/05 12:47:53;;;;;;;27.02;15.25;;;11.00;99.90;;;;;;4976091;28;20050;-83
2022/03/05 12:50:36;;;;;;;25.75;14.45;;;11.20;99.90;;;;;;5026884;28;20081;-82
2022/03/05 12:53:04;;;;;;;27.08;13.20;;;11.40;93.50;;;;;;5009744;28;20053;-84
2022/03/05 12:55:39;;;;;;;25.02;13.82;;;11.50;98.80;;;;;;4993403;28;20498;-85
2022/03/05 12:58:10;;;;;;;25.52;14.18;;;11.60;92.10;;;;;;5009919;28;20099;-85
2022/03/05 13:00:41;;;;;;;27.08;15.07;;;11.70;92.60;;;;;;5006752;28;20121;-89
2022/03/05 13:03:08;;;;;;;29.35;15.15;;;12.00;93.30;;;;;;4976086;28;20045;-87
2022/03/05 13:05:34;;;;;;;25.75;13.57;;;12.30;91.90;;;;;;4994939;28;20053;-87
2022/03/05 13:08:00;;;;;;;23.77;13.65;;;12.50;87.70;;;;;;5009198;28;20108;-87
2022/03/05 13:10:26;;;;;;;25.23;14.40;;;12.60;84.30;;;;;;4994826;28;20042;-86
2022/03/05 13:12:54;;;;;;;27.48;13.77;;;12.80;85.80;;;;;;5024406;28;20046;-84
2022/03/05 13:15:31;;;;;;;26.77;13.68;;;13.20;82.90;;;;;;4986334;28;20097;-83
2022/03/05 13:18:09;;;;;;;26.50;14.38;;;13.40;78.60;;;;;;4978858;28;20504;-82
2022/03/05 13:20:37;;;;;;;25.67;14.52;;;13.60;74.90;;;;;;4992359;28;20050;-82
2022/03/05 13:23:04;;;;;;;24.08;13.65;;;13.70;74.80;;;;;;4979349;28;20050;-82
2022/03/05 13:25:37;;;;;;;26.20;14.90;;;13.90;73.70;;;;;;5010634;28;20080;-83
2022/03/05 13:28:03;;;;;;;24.38;14.02;;;14.10;71.90;;;;;;5011498;28;20131;-82
2022/03/05 13:30:28;;;;;;;;;;;14.20;70.10;;;;;;4995807;28;20472;-84
2022/03/05 13:32:54;;;;;;;27.27;14.07;;;14.40;70.10;;;;;;5012363;28;20371;-82
2022/03/05 13:35:20;;;;;;;24.27;13.55;;;14.50;69.50;;;;;;5010002;28;20054;-81
2022/03/05 13:37:46;;;;;;;;;;;14.70;67.50;;;;;;4983442;28;20050;-81
2022/03/05 13:40:15;;;;;;;23.33;13.25;;;15.00;65.50;;;;;;4992191;28;19932;-82
2022/03/05 13:42:45;;;;;;;23.80;13.88;;;15.40;67.20;;;;;;4975528;28;20560;-82
2022/03/05 13:45:13;;;;;;;23.67;13.88;;;15.50;64.50;;;;;;4992025;28;20117;-81
2022/03/05 13:47:47;;;;;;;26.30;14.63;;;15.60;62.50;;;;;;4991717;28;20061;-82
2022/03/05 13:50:15;;;;;;;23.13;13.68;;;15.60;61.40;;;;;;5002214;28;20061;-82
2022/03/05 13:52:55;;;;;;;25.08;14.88;;;15.70;60.70;;;;;;5010595;28;20107;-82
2022/03/05 13:55:22;;;;;;;25.95;14.35;;;15.90;61.00;;;;;;5011691;28;20050;-83
2022/03/05 13:57:55;;;;;;;22.65;13.27;;;16.10;60.20;;;;;;5013915;28;20079;-80
2022/03/05 14:00:24;;;;;;;24.50;13.65;;;16.30;58.00;;;;;;5013938;28;20042;-81
2022/03/05 14:02:53;;;;;;;27.08;14.70;;;16.30;57.50;;;;;;5025784;28;20041;-81
2022/03/05 14:05:23;;;;;;;22.63;13.70;;;16.40;56.70;;;;;;5011091;28;20042;-81
2022/03/05 14:07:55;;;;;;;22.25;13.23;;;16.60;56.70;;;;;;5009597;28;20049;-80
2022/03/05 14:10:21;;;;;;;24.65;14.02;;;16.80;55.70;;;;;;5010702;28;20487;-92
2022/03/05 14:12:49;;;;;;;21.65;13.50;;;16.80;55.30;;;;;;5021501;28;20541;-82
2022/03/05 14:15:15;;;;;;;23.95;13.30;;;16.90;56.30;;;;;;5027156;28;20364;-80
2022/03/05 14:17:46;;;;;;;20.80;12.57;;;17.00;54.30;;;;;;5012636;28;20124;-81
2022/03/05 14:20:17;;;;;;;22.88;13.48;;;17.00;53.30;;;;;;5013529;28;20049;-81
2022/03/05 14:22:44;;;;;;;22.65;13.25;;;17.10;53.70;;;;;;5011869;28;20128;-82
2022/03/05 14:25:13;;;;;;;22.35;13.18;;;17.30;54.50;;;;;;5029336;28;20091;-82
2022/03/05 14:27:39;;;;;;;23.83;14.32;;;17.60;52.80;;;;;;5028584;28;20501;-82
2022/03/05 14:30:05;;;;;;;;;;;17.90;53.00;;;;;;5013472;28;20068;-82
2022/03/05 14:32:30;;;;;;;23.58;13.52;;;18.00;54.80;;;;;;5029575;28;19974;-83
2022/03/05 14:34:56;;;;;;;;;;;18.10;53.30;;;;;;4996955;28;20084;-83
2022/03/05 14:37:22;;;;;;;22.45;13.25;;;18.00;50.20;;;;;;5026187;28;19921;-82
2022/03/05 14:39:47;;;;;;;;;;;17.90;52.00;;;;;;4994805;28;20491;-82
2022/03/05 14:42:13;;;;;;;22.15;13.23;;;17.90;52.10;;;;;;5028483;28;19921;-79
2022/03/05 14:44:38;;;;;;;;;;;17.90;51.40;;;;;;5011883;28;20045;-80
2022/03/05 14:47:04;;;;;;;21.88;12.77;;;18.10;52.90;;;;;;5029329;28;19967;-79
2022/03/05 14:49:30;;;;;;;;;;;18.30;50.90;;;;;;5029920;28;20054;-79
2022/03/05 14:51:56;;;;;;;25.02;13.30;;;18.50;51.50;;;;;;5008796;28;19921;-79
2022/03/05 14:54:21;;;;;;;;;;;18.70;50.10;;;;;;5027720;28;20052;-79
2022/03/05 14:56:47;;;;;;;21.88;13.10;;;18.60;50.90;;;;;;5002843;28;19968;-80
2022/03/05 14:59:13;;;;;;;;;;;18.50;49.80;;;;;;5003126;28;20045;-79
2022/03/05 15:01:40;;;;;;;23.58;13.43;;;18.50;52.10;;;;;;5027547;28;20382;-83
2022/03/05 15:04:06;;;;;;;24.42;14.60;;;18.60;50.60;;;;;;4992388;28;20398;-85
2022/03/05 15:06:32;;;;;;;22.33;13.35;;;18.70;50.00;;;;;;4992923;28;20521;-84
2022/03/05 15:08:58;;;;;;;19.15;12.57;;;18.70;49.00;;;;;;5010262;28;20046;-84
2022/03/05 15:11:24;;;;;;;22.70;13.20;;;18.70;48.60;;;;;;5000814;28;20049;-84
2022/03/05 15:13:50;;;;;;;;;;;18.70;47.70;;;;;;5013949;28;20049;-84
2022/03/05 15:16:15;;;;;;;22.77;13.32;;;18.60;49.30;;;;;;5009811;28;20330;-83
2022/03/05 15:18:41;;;;;;;;;;;18.50;48.30;;;;;;5029570;28;20049;-84
2022/03/05 15:21:07;;;;;;;23.65;12.68;;;18.40;49.30;;;;;;5025296;28;19959;-83
2022/03/05 15:23:32;;;;;;;;;;;18.30;47.80;;;;;;5024316;28;20457;-83
2022/03/05 15:25:58;;;;;;;23.60;13.63;;;18.10;48.20;;;;;;5012626;28;20263;-84
2022/03/05 15:28:24;;;;;;;;;;;18.00;48.70;;;;;;5018009;28;20043;-83
2022/03/05 15:30:49;;;;;;;23.40;13.57;;;18.00;49.60;;;;;;5020988;28;20363;-83
2022/03/05 15:33:15;;;;;;;;;;;18.00;48.50;;;;;;5027967;28;20053;-83
2022/03/05 15:35:41;;;;;;;22.98;13.65;;;18.10;49.30;;;;;;5006147;28;19948;-84
2022/03/05 15:38:07;;;;;;;;;;;18.00;48.50;;;;;;5003851;28;20076;-83
2022/03/05 15:40:32;;;;;;;22.95;13.68;;;17.60;49.00;;;;;;5000155;28;19944;-83
2022/03/05 15:42:58;;;;;;;;;;;17.00;50.10;;;;;;5016787;28;20076;-83
2022/03/05 15:45:26;;;;;;;24.60;13.70;;;16.70;50.70;;;;;;5016331;28;19932;-83
2022/03/05 15:47:52;;;;;;;24.90;12.88;;;16.70;49.40;;;;;;5027110;28;20042;-85
2022/03/05 15:50:19;;;;;;;24.02;14.18;;;16.90;48.90;;;;;;5004864;28;20180;-84
2022/03/05 15:52:45;;;;;;;25.30;13.85;;;17.00;49.00;;;;;;5012941;28;20120;-84
2022/03/05 15:55:11;;;;;;;23.00;12.75;;;17.10;49.50;;;;;;4993044;28;20042;-83
2022/03/05 15:57:38;;;;;;;24.45;13.60;;;17.10;48.50;;;;;;5000689;28;20046;-82
2022/03/05 16:00:07;;;;;;;22.83;13.60;;;17.00;49.10;;;;;;4981404;28;20053;-82
2022/03/05 16:02:34;;;;;;;22.67;13.60;;;17.10;48.90;;;;;;4977529;28;20061;-83
2022/03/05 16:05:00;;;;;;;24.30;12.85;;;16.90;48.40;;;;;;4993655;28;20038;-83
2022/03/05 16:07:26;;;;;;;;;;;16.60;48.60;;;;;;4961578;28;20505;-82
2022/03/05 16:09:52;;;;;;;25.25;13.75;;;16.60;50.60;;;;;;4993451;28;20004;-82
2022/03/05 16:12:17;;;;;;;;;;;16.50;49.50;;;;;;4984197;28;20061;-82
2022/03/05 16:14:43;;;;;;;22.70;13.48;;;16.50;49.70;;;;;;4996123;28;19928;-83
2022/03/05 16:17:09;;;;;;;;;;;16.40;49.80;;;;;;4997724;28;20072;-84
2022/03/05 16:19:35;;;;;;;27.13;14.93;;;16.40;51.10;;;;;;4996656;28;19921;-83
2022/03/05 16:22:00;;;;;;;23.05;13.15;;;16.30;50.00;;;;;;5012063;28;20130;-82
2022/03/05 16:24:26;;;;;;;25.42;14.20;;;16.20;50.20;;;;;;4996862;28;20041;-82
2022/03/05 16:26:52;;;;;;;23.08;12.57;;;16.20;50.70;;;;;;4995763;28;20053;-82
2022/03/05 16:29:17;;;;;;;;;;;16.10;50.40;;;;;;4993901;28;20483;-83
2022/03/05 16:31:43;;;;;;;23.95;13.65;;;16.00;51.70;;;;;;5007727;28;20375;-83
2022/03/05 16:34:09;;;;;;;26.05;13.93;;;15.80;51.60;;;;;;4995405;28;20442;-82
2022/03/05 16:36:35;;;;;;;23.42;12.98;;;15.70;51.80;;;;;;5012274;28;20042;-83
2022/03/05 16:39:06;;;;;;;;;;;15.60;51.60;;;;;;5013393;28;20077;-83
2022/03/05 16:41:32;;;;;;;22.98;12.60;;;15.50;53.30;;;;;;4996675;28;20408;-83
2022/03/05 16:43:58;;;;;;;25.40;14.38;;;15.30;52.20;;;;;;4980336;28;20089;-84